Weather at Red Bay Water Aerodrome [CLOSED]

Public forecast

Using degrees Celsius for public forecast. Weather courtesy of forecast.io.

Closest aviation weather report (METAR) to Red Bay Water Aerodrome

Report is more than 6 hours old.

Closest report is St. Anthony Airport, 24.0 nm (44.5 km) SE.

2022/11/14 15:23 (retrieved 2 years ago)

CYAY 141523Z AUTO 06018KT 9SM -SN OVC020 M02/M05 A2983 RMK PRESFR SLP107

Closest aviation forecast (TAF) to Red Bay Water Aerodrome

Forecast is more than 12 hours old.

Closest forecast is St. Anthony Airport, 24.0 nm (44.5 km) SE.

2023/02/22 20:42 (retrieved 1 year ago)

TAF CYAY 221940Z 2220/2308 34006KT 5SM -SN BR OVC006 TEMPO 2220/2221 P6SM NSW SCT008 BKN015 FM222100 28010KT P6SM -SN OVC015 TEMPO 2221/2306 P6SM NSW SCT015 BKN025 BECMG 2301/2303 28015G25KT FM230600 28020G30KT P6SM SCT025 RMK FCST BASED ON AUTO OBS NXT FCST BY 230200Z